Time;durP1;ratioP1;P1;durP2;ratioP2;P2;SDS_P1;SDS_P2;PMS_P1;PMS_P2;Temp;Humidity;BMP_temperature;BMP_pressure;BME280_temperature;BME280_humidity;BME280_pressure;Samples;Min_cycle;Max_cycle;Signal;HPM_P1;HPM_P2
2021/09/14 00:00:21;;;;;;;;;10.25;8.25;;;;;23.87;50.91;100818.88;5038091;28;45374;-81
2021/09/14 00:02:48;;;;;;;;;10.25;8.00;;;;;23.88;50.95;100812.69;5037765;28;45384;-82
2021/09/14 00:05:13;;;;;;;;;9.50;8.75;;;;;23.86;50.74;100815.34;5053132;28;45274;-83
2021/09/14 00:07:39;;;;;;;;;7.25;7.00;;;;;23.86;50.72;100820.66;5038357;28;45242;-81
2021/09/14 00:10:06;;;;;;;;;7.25;7.25;;;;;23.84;51.12;100819.78;5037496;28;45919;-82
2021/09/14 00:12:31;;;;;;;;;6.75;6.75;;;;;23.83;50.77;100833.00;5037659;28;45709;-82
2021/09/14 00:14:57;;;;;;;;;7.75;6.75;;;;;23.81;51.34;100847.09;5038355;28;45409;-82
2021/09/14 00:17:23;;;;;;;;;6.50;6.50;;;;;23.78;50.81;100838.31;5045731;28;45319;-82
2021/09/14 00:19:48;;;;;;;;;7.50;6.00;;;;;23.75;50.96;100841.03;5039321;28;46037;-82
2021/09/14 00:22:14;;;;;;;;;9.25;8.00;;;;;23.69;51.17;100841.97;5037823;28;45481;-81
2021/09/14 00:24:39;;;;;;;;;4.25;4.25;;;;;23.67;51.17;100833.16;5037594;28;45352;-82
2021/09/14 00:27:05;;;;;;;;;7.00;6.25;;;;;23.63;51.12;100824.38;5053068;28;45563;-82
2021/09/14 00:29:30;;;;;;;;;6.50;6.50;;;;;23.67;51.19;100829.63;5037673;28;45823;-82
2021/09/14 00:31:56;;;;;;;;;8.25;8.00;;;;;23.64;51.54;100825.25;5037216;28;45425;-82
2021/09/14 00:34:22;;;;;;;;;5.25;5.25;;;;;23.61;51.49;100831.44;5038150;28;45281;-82
2021/09/14 00:36:47;;;;;;;;;6.25;5.50;;;;;23.58;51.35;100826.19;5036814;28;45350;-85
2021/09/14 00:39:13;;;;;;;;;4.75;4.75;;;;;23.58;51.60;100833.25;5036165;28;45403;-83
2021/09/14 00:41:38;;;;;;;;;8.25;7.00;;;;;23.56;52.06;100829.72;5038184;28;45433;-83
2021/09/14 00:44:04;;;;;;;;;7.00;7.00;;;;;23.52;51.58;100818.31;5044633;28;45223;-85
2021/09/14 00:46:30;;;;;;;;;5.25;5.25;;;;;23.57;51.65;100823.56;5043207;28;45481;-82
2021/09/14 00:48:56;;;;;;;;;7.50;5.00;;;;;23.56;51.36;100817.38;5053227;28;47392;-82
2021/09/14 00:51:22;;;;;;;;;7.00;6.00;;;;;23.57;51.46;100820.91;5036343;28;45365;-81
2021/09/14 00:53:48;;;;;;;;;6.25;5.75;;;;;23.55;51.36;100823.56;5036231;28;45865;-81
2021/09/14 00:56:16;;;;;;;;;7.50;7.50;;;;;23.53;51.58;100828.00;5035719;28;45473;-82
2021/09/14 00:58:43;;;;;;;;;7.50;7.00;;;;;23.52;51.34;100830.63;5035723;28;45459;-83
2021/09/14 01:01:09;;;;;;;;;8.00;8.00;;;;;23.50;51.39;100834.16;5034932;28;45778;-83
2021/09/14 01:03:35;;;;;;;;;6.50;6.50;;;;;23.48;51.54;100820.13;5051013;28;45251;-84
2021/09/14 01:06:02;;;;;;;;;9.25;7.75;;;;;23.47;51.74;100828.94;5035686;28;45357;-83
2021/09/14 01:08:30;;;;;;;;;6.25;5.75;;;;;23.45;51.47;100838.63;5035484;28;45451;-82
2021/09/14 01:10:56;;;;;;;;;8.75;7.00;;;;;23.42;51.43;100840.44;5054149;28;45362;-83
2021/09/14 01:13:22;;;;;;;;;9.50;8.25;;;;;23.42;51.62;100849.22;5041482;28;45180;-82
2021/09/14 01:15:47;;;;;;;;;6.75;6.75;;;;;23.37;51.62;100850.13;5036327;28;45226;-81
2021/09/14 01:18:13;;;;;;;;;8.00;7.25;;;;;23.33;51.80;100855.44;5035169;28;45459;-82
2021/09/14 01:20:39;;;;;;;;;4.75;4.75;;;;;23.30;51.81;100852.84;5050507;28;45352;-82
2021/09/14 01:23:05;;;;;;;;;7.00;6.00;;;;;23.27;52.05;100844.06;5035017;28;45346;-82
2021/09/14 01:25:30;;;;;;;;;6.50;4.00;;;;;23.22;52.13;100845.84;5050908;28;45420;-82
2021/09/14 01:28:06;;;;;;;;;10.25;8.00;;;;;23.16;52.51;100852.03;5032594;28;45370;-82
2021/09/14 01:30:33;;;;;;;;;8.00;6.25;;;;;23.13;52.27;100852.94;5015291;28;45347;-82
2021/09/14 01:32:59;;;;;;;;;6.00;6.00;;;;;23.10;52.29;100855.56;5027448;28;45449;-82
2021/09/14 01:35:28;;;;;;;;;11.00;8.25;;;;;23.08;52.51;100848.56;4984874;28;1461793;-82
2021/09/14 01:37:54;;;;;;;;;7.25;7.25;;;;;23.06;52.78;100856.47;5053000;28;48144;-82
2021/09/14 01:40:20;;;;;;;;;10.50;8.25;;;;;23.07;53.01;100860.88;5044443;28;45219;-81
2021/09/14 01:42:46;;;;;;;;;7.75;6.50;;;;;23.04;52.95;100863.56;5038190;28;45212;-83
2021/09/14 01:45:13;;;;;;;;;7.50;6.50;;;;;23.03;52.91;100861.78;5052544;28;46046;-81
2021/09/14 01:47:40;;;;;;;;;9.50;5.00;;;;;22.99;53.13;100865.31;5036414;28;46617;-82
2021/09/14 01:50:08;;;;;;;;;7.00;7.00;;;;;22.93;53.24;100881.22;5035962;28;45853;-82
2021/09/14 01:52:34;;;;;;;;;7.25;7.25;;;;;22.92;53.61;100887.38;5036444;28;45287;-82
2021/09/14 01:55:01;;;;;;;;;8.00;8.00;;;;;22.92;53.66;100882.97;5036322;28;45189;-82
2021/09/14 01:57:32;;;;;;;;;8.00;8.00;;;;;22.91;53.42;100885.63;5035841;28;45996;-82
2021/09/14 01:59:59;;;;;;;;;7.50;7.50;;;;;22.91;53.31;100898.81;5035977;28;45259;-82
2021/09/14 02:05:11;;;;;;;;;8.00;8.00;;;;;22.91;53.58;100901.47;5036131;28;45330;-82
2021/09/14 02:24:06;;;;;;;;;13.75;8.75;;;;;22.93;53.75;100876.81;5035646;28;45296;-84
2021/09/14 02:56:15;;;;;;;;;8.00;8.00;;;;;22.91;55.57;100811.69;5015281;28;45418;-83
2021/09/14 02:58:41;;;;;;;;;8.75;8.00;;;;;22.92;55.98;100813.47;5015910;28;45315;-83
2021/09/14 03:01:08;;;;;;;;;9.25;8.00;;;;;22.91;56.08;100807.28;5017691;28;45371;-82
2021/09/14 03:03:36;;;;;;;;;9.50;8.00;;;;;22.91;56.26;100814.34;5021012;28;45395;-82
2021/09/14 03:06:02;;;;;;;;;12.50;11.00;;;;;22.90;56.67;100808.16;5016304;28;45314;-82
2021/09/14 03:08:28;;;;;;;;;6.25;5.00;;;;;22.89;56.67;100803.81;5015988;28;45267;-82
2021/09/14 03:10:54;;;;;;;;;13.25;11.00;;;;;22.87;57.04;100798.50;5014857;28;45362;-82
2021/09/14 03:13:20;;;;;;;;;9.50;9.25;;;;;22.86;57.17;100783.56;5015651;28;45223;-83
2021/09/14 03:15:45;;;;;;;;;9.50;8.00;;;;;22.85;57.49;100784.44;5015431;28;45250;-82
2021/09/14 03:18:11;;;;;;;;;12.75;11.00;;;;;22.81;57.93;100793.28;5015396;28;45542;-83
2021/09/14 03:20:37;;;;;;;;;10.00;9.50;;;;;22.78;58.47;100790.66;5015195;28;45900;-83
2021/09/14 03:23:02;;;;;;;;;8.75;7.75;;;;;22.75;58.00;100779.25;5014846;28;45831;-83
2021/09/14 03:25:28;;;;;;;;;10.25;9.50;;;;;22.72;58.65;100788.94;5034079;28;45264;-82
2021/09/14 03:27:54;;;;;;;;;12.75;9.00;;;;;22.73;58.67;100792.47;5018710;28;45382;-83
2021/09/14 03:30:19;;;;;;;;;9.25;8.00;;;;;22.72;58.82;100801.25;5026350;28;45605;-83
2021/09/14 03:32:45;;;;;;;;;11.00;11.00;;;;;22.70;58.74;100784.56;5022207;28;45370;-84
2021/09/14 03:35:10;;;;;;;;;11.75;10.00;;;;;22.70;58.93;100787.19;5018742;28;45445;-83
2021/09/14 03:37:37;;;;;;;;;10.00;10.00;;;;;22.70;58.87;100795.09;5018729;28;45418;-83
2021/09/14 03:40:03;;;;;;;;;9.00;9.00;;;;;22.68;59.09;100775.75;5016843;28;45790;-83
2021/09/14 03:42:29;;;;;;;;;10.00;9.75;;;;;22.66;59.19;100772.25;5018162;28;45246;-83
2021/09/14 03:44:55;;;;;;;;;10.75;9.75;;;;;22.65;59.30;100760.84;5033568;28;45268;-84
2021/09/14 03:47:20;;;;;;;;;9.00;8.25;;;;;22.61;59.09;100748.53;5019824;28;45457;-83
2021/09/14 03:49:46;;;;;;;;;11.75;11.50;;;;;22.60;59.92;100751.19;5018178;28;45449;-81
2021/09/14 03:52:12;;;;;;;;;12.25;11.75;;;;;22.55;59.68;100751.22;5017955;28;45301;-82
2021/09/14 03:54:38;;;;;;;;;11.75;9.75;;;;;22.52;60.00;100749.44;5033584;28;45436;-81
2021/09/14 03:57:10;;;;;;;;;10.75;8.50;;;;;22.41;60.41;100738.06;5021664;28;45568;-83
2021/09/14 03:59:40;;;;;;;;;13.00;11.00;;;;;22.39;60.07;100735.44;5039777;28;47067;-81
2021/09/14 04:02:13;;;;;;;;;9.00;8.50;;;;;22.45;59.87;100742.47;5034134;28;45482;-82
2021/09/14 04:09:37;;;;;;;;;12.75;9.25;;;;;22.37;59.83;100718.72;5018010;28;45636;-82
2021/09/14 04:12:03;;;;;;;;;10.75;9.75;;;;;22.36;60.64;100730.16;5033175;28;45611;-82
2021/09/14 04:14:30;;;;;;;;;10.00;10.00;;;;;22.34;60.77;100718.75;5021899;28;45365;-83
2021/09/14 04:16:56;;;;;;;;;11.25;10.00;;;;;22.39;60.52;100732.78;5018975;28;45476;-83
2021/09/14 04:19:22;;;;;;;;;12.00;11.00;;;;;22.36;60.51;100714.34;5018397;28;46308;-84
2021/09/14 04:21:50;;;;;;;;;12.50;9.50;;;;;22.40;60.94;100708.19;5018721;28;45422;-84
2021/09/14 04:24:22;;;;;;;;;11.50;9.00;;;;;22.44;61.06;100724.88;5020365;28;45460;-82
2021/09/14 04:26:48;;;;;;;;;10.75;10.00;;;;;22.45;60.86;100741.59;5025186;28;45668;-83
2021/09/14 04:29:16;;;;;;;;;10.00;10.00;;;;;22.36;60.71;100743.34;5036633;28;46986;-82
2021/09/14 04:31:42;;;;;;;;;10.50;10.50;;;;;22.26;60.65;100739.91;5033921;28;45411;-83
2021/09/14 04:34:10;;;;;;;;;13.50;12.00;;;;;22.22;61.11;100727.59;5017721;28;45441;-82
2021/09/14 04:36:39;;;;;;;;;9.50;8.75;;;;;22.22;61.30;100732.00;5016840;28;45617;-80
2021/09/14 04:39:05;;;;;;;;;12.00;12.00;;;;;22.21;61.54;100707.38;5017368;28;45335;-81
2021/09/14 04:41:30;;;;;;;;;11.75;11.00;;;;;22.20;61.92;100692.44;5017284;28;45297;-81
2021/09/14 04:43:56;;;;;;;;;14.50;12.25;;;;;22.25;62.06;100684.50;5016902;28;45173;-82
2021/09/14 04:46:21;;;;;;;;;10.25;9.25;;;;;22.27;63.04;100670.44;5032975;28;45413;-82
2021/09/14 04:48:47;;;;;;;;;10.75;9.50;;;;;22.27;62.99;100644.06;5016899;28;45360;-83
2021/09/14 04:51:12;;;;;;;;;14.50;11.75;;;;;22.29;63.18;100638.78;5032970;28;45683;-85
2021/09/14 04:53:38;;;;;;;;;11.75;10.50;;;;;22.29;62.88;100651.97;5020465;28;45430;-84
2021/09/14 04:56:04;;;;;;;;;9.25;7.75;;;;;22.30;62.62;100650.22;5019740;28;45446;-82
2021/09/14 04:58:32;;;;;;;;;10.50;10.50;;;;;22.27;62.79;100636.16;5018133;28;45313;-82
2021/09/14 05:00:58;;;;;;;;;10.00;10.00;;;;;22.25;62.58;100632.66;5016993;28;45256;-84
2021/09/14 05:03:24;;;;;;;;;14.00;12.25;;;;;22.25;63.36;100615.94;5017171;28;45429;-84
2021/09/14 05:05:49;;;;;;;;;12.00;11.00;;;;;22.25;62.99;100622.09;5018456;28;45231;-82
2021/09/14 05:08:15;;;;;;;;;12.50;11.75;;;;;22.26;62.98;100637.03;5018684;28;46046;-84
2021/09/14 05:10:41;;;;;;;;;12.50;12.00;;;;;22.26;63.42;100650.22;5017281;28;45323;-86
2021/09/14 05:13:06;;;;;;;;;12.50;11.50;;;;;22.24;63.15;100651.13;5018999;28;45220;-84
2021/09/14 05:15:34;;;;;;;;;13.25;12.25;;;;;22.24;63.33;100670.44;5017833;28;45565;-81
2021/09/14 05:18:08;;;;;;;;;14.50;13.50;;;;;22.23;63.46;100681.03;5032285;28;47518;-86
2021/09/14 05:20:34;;;;;;;;;12.25;11.00;;;;;22.16;63.76;100696.00;5023261;28;45275;-81
2021/09/14 05:23:11;;;;;;;;;17.25;12.75;;;;;22.09;63.73;100694.25;5020614;28;45322;-82
2021/09/14 05:25:37;;;;;;;;;12.50;11.75;;;;;22.07;63.92;100709.22;5040174;28;45294;-81
2021/09/14 05:28:02;;;;;;;;;11.00;11.00;;;;;22.03;64.04;100708.34;5019204;28;46017;-86
2021/09/14 05:30:28;;;;;;;;;16.00;13.00;;;;;22.01;63.80;100710.13;5018354;28;45178;-85
2021/09/14 05:32:53;;;;;;;;;15.00;13.75;;;;;22.00;64.38;100705.75;5017527;28;45283;-82
2021/09/14 05:35:25;;;;;;;;;13.50;11.75;;;;;21.99;64.40;100721.53;5017543;28;45272;-85
2021/09/14 05:37:50;;;;;;;;;13.25;13.25;;;;;21.98;64.34;100731.22;5018139;28;45701;-88
2021/09/14 05:40:16;;;;;;;;;15.00;14.00;;;;;22.00;64.42;100728.56;5022018;28;45467;-89
2021/09/14 05:42:42;;;;;;;;;11.25;11.25;;;;;22.05;64.63;100742.63;5032177;28;45262;-86
2021/09/14 05:45:08;;;;;;;;;13.50;13.00;;;;;22.07;64.88;100754.06;5028107;28;45425;-91
2021/09/14 05:47:33;;;;;;;;;14.75;12.00;;;;;22.09;64.03;100766.34;5023639;28;45453;-83
2021/09/14 05:50:01;;;;;;;;;14.00;12.50;;;;;22.10;64.60;100765.47;5024115;28;45235;-82
2021/09/14 05:52:26;;;;;;;;;15.00;12.75;;;;;22.09;64.41;100779.53;5027438;28;45199;-82
2021/09/14 05:54:52;;;;;;;;;13.75;11.00;;;;;22.13;65.04;100800.63;5032670;28;45350;-85
2021/09/14 05:57:18;;;;;;;;;13.25;10.50;;;;;22.14;64.67;100810.28;5028544;28;46034;-84
2021/09/14 05:59:43;;;;;;;;;11.75;10.00;;;;;22.17;64.37;100824.34;5030540;28;45334;-82
2021/09/14 06:02:09;;;;;;;;;16.25;15.00;;;;;22.15;64.12;100828.72;5033299;28;45283;-81
2021/09/14 06:04:34;;;;;;;;;11.50;9.25;;;;;22.11;63.62;100832.25;5037619;28;45562;-80
2021/09/14 06:07:00;;;;;;;;;13.50;10.25;;;;;22.07;64.28;100839.28;5040568;28;45598;-84
2021/09/14 06:09:26;;;;;;;;;12.50;11.50;;;;;22.06;64.19;100847.22;5037779;28;45496;-88
2021/09/14 06:11:51;;;;;;;;;10.50;9.75;;;;;22.06;64.51;100848.06;5037027;28;45481;-86
2021/09/14 06:14:17;;;;;;;;;10.50;10.00;;;;;22.04;64.24;100851.59;5033346;28;45496;-86
2021/09/14 06:16:42;;;;;;;;;10.00;9.00;;;;;21.99;64.55;100850.72;5037404;28;45386;-82
2021/09/14 06:19:08;;;;;;;;;11.25;9.50;;;;;21.95;64.47;100853.38;5038185;28;45261;-81
2021/09/14 06:21:37;;;;;;;;;11.50;11.50;;;;;21.93;64.82;100849.88;5031844;28;45518;-82
2021/09/14 06:24:07;;;;;;;;;12.00;11.50;;;;;21.92;65.17;100858.66;5035141;28;45791;-82
2021/09/14 06:26:34;;;;;;;;;11.00;9.00;;;;;21.90;64.79;100852.50;5031038;28;45648;-81
2021/09/14 06:29:00;;;;;;;;;12.00;11.00;;;;;21.85;65.21;100854.28;5033792;28;45422;-80
2021/09/14 06:31:25;;;;;;;;;11.00;11.00;;;;;21.78;65.22;100848.13;5027878;28;45389;-81
2021/09/14 06:33:51;;;;;;;;;14.75;11.25;;;;;21.73;65.08;100841.13;5038768;28;45465;-85
2021/09/14 06:36:17;;;;;;;;;9.25;9.25;;;;;21.68;65.67;100850.75;5031630;28;47030;-85
2021/09/14 06:38:42;;;;;;;;;9.00;9.00;;;;;21.65;65.71;100849.00;5018611;28;45410;-86
2021/09/14 06:41:08;;;;;;;;;11.25;9.50;;;;;21.54;66.48;100841.09;5035549;28;45425;-81
2021/09/14 06:43:34;;;;;;;;;7.25;6.00;;;;;21.43;66.97;100835.81;5039952;28;45390;-84
2021/09/14 06:46:00;;;;;;;;;10.75;10.25;;;;;21.40;67.56;100850.75;5018740;28;46673;-81
2021/09/14 06:48:25;;;;;;;;;10.50;8.00;;;;;21.31;67.67;100841.97;5034983;28;45345;-82
2021/09/14 06:50:51;;;;;;;;;10.25;9.25;;;;;21.28;67.92;100841.06;5035672;28;45449;-83
2021/09/14 06:53:17;;;;;;;;;12.50;9.75;;;;;21.23;68.39;100827.03;5032634;28;45643;-80
2021/09/14 06:55:43;;;;;;;;;10.00;9.25;;;;;21.30;68.45;100834.94;5030324;28;45392;-83
2021/09/14 06:58:09;;;;;;;;;14.25;12.00;;;;;21.36;68.61;100838.44;5044072;28;45326;-84
2021/09/14 07:00:36;;;;;;;;;12.25;10.75;;;;;21.41;68.80;100858.63;5053383;28;45397;-84
2021/09/14 07:03:03;;;;;;;;;11.00;9.25;;;;;21.38;68.49;100860.38;5036994;28;45580;-83
2021/09/14 07:05:29;;;;;;;;;8.75;6.50;;;;;21.28;69.68;100843.69;5037469;28;46033;-85
2021/09/14 07:07:55;;;;;;;;;10.00;9.25;;;;;21.19;69.92;100837.53;5037268;28;45414;-85
2021/09/14 07:10:21;;;;;;;;;12.00;9.75;;;;;21.13;69.97;100827.03;5043892;28;45346;-84
2021/09/14 07:12:47;;;;;;;;;11.75;9.00;;;;;21.08;70.47;100818.22;5044815;28;45406;-84
2021/09/14 07:15:13;;;;;;;;;10.50;9.75;;;;;21.07;70.61;100815.59;5041274;28;45424;-82
2021/09/14 07:17:38;;;;;;;;;9.00;7.25;;;;;21.07;71.49;100811.19;5039565;28;45207;-86
2021/09/14 07:20:08;;;;;;;;;9.00;8.75;;;;;21.05;70.87;100791.91;5032847;28;45521;-84
2021/09/14 07:22:34;;;;;;;;;10.00;7.25;;;;;21.07;71.41;100781.38;5034228;28;45528;-83
2021/09/14 07:25:01;;;;;;;;;11.50;9.25;;;;;21.14;70.85;100760.31;5033370;28;46863;-84
2021/09/14 07:27:26;;;;;;;;;9.00;8.00;;;;;21.21;71.10;100740.16;5020479;28;45368;-84
2021/09/14 07:29:52;;;;;;;;;11.00;10.00;;;;;21.29;71.40;100733.09;5028977;28;45338;-85
2021/09/14 07:32:18;;;;;;;;;9.00;8.75;;;;;21.37;70.98;100751.53;5021535;28;45706;-85
2021/09/14 07:34:44;;;;;;;;;11.50;9.75;;;;;21.46;70.76;100759.44;5019588;28;47731;-83
2021/09/14 07:37:09;;;;;;;;;11.00;10.00;;;;;21.59;70.64;100785.81;5020374;28;45387;-83
2021/09/14 07:39:35;;;;;;;;;13.75;11.00;;;;;21.54;70.45;100790.16;5027341;28;45494;-85
2021/09/14 07:42:01;;;;;;;;;13.25;11.00;;;;;21.45;70.91;100798.94;5035460;28;45431;-84
2021/09/14 07:44:26;;;;;;;;;8.00;8.00;;;;;21.39;71.55;100798.94;5030011;28;45650;-84
2021/09/14 07:46:52;;;;;;;;;9.75;9.75;;;;;21.38;71.06;100813.84;5067413;28;45876;-83
2021/09/14 07:49:18;;;;;;;;;9.00;8.00;;;;;21.45;71.47;100820.00;5038168;28;45500;-84
2021/09/14 07:51:44;;;;;;;;;9.50;8.25;;;;;21.52;71.15;100828.78;5029808;28;45520;-84
2021/09/14 07:54:10;;;;;;;;;14.00;10.50;;;;;21.61;71.57;100834.97;5018511;28;46516;-84
2021/09/14 07:56:35;;;;;;;;;14.00;11.75;;;;;21.69;70.79;100834.97;5023636;28;45439;-85
2021/09/14 07:59:02;;;;;;;;;12.25;11.25;;;;;21.72;70.93;100823.53;5018651;28;45385;-84
2021/09/14 08:01:28;;;;;;;;;9.50;9.00;;;;;21.83;70.52;100826.16;5019363;28;45380;-86
2021/09/14 08:03:54;;;;;;;;;11.25;9.50;;;;;21.92;70.16;100827.03;5020062;28;46712;-85
2021/09/14 08:06:19;;;;;;;;;11.25;11.00;;;;;21.99;70.37;100817.34;5024408;28;45288;-85
2021/09/14 08:08:45;;;;;;;;;10.25;9.25;;;;;22.09;69.79;100819.06;5026059;28;45438;-85
2021/09/14 08:11:11;;;;;;;;;13.00;12.00;;;;;22.15;69.96;100826.09;5019383;28;45176;-85
2021/09/14 08:13:36;;;;;;;;;11.25;7.50;;;;;22.19;69.51;100835.72;5018751;28;46234;-88
2021/09/14 08:16:05;;;;;;;;;11.50;10.50;;;;;22.24;69.82;100844.53;5020591;28;45442;-90
2021/09/14 08:18:31;;;;;;;;;15.50;12.50;;;;;22.29;69.31;100848.91;5022378;28;45340;-89
2021/09/14 08:20:57;;;;;;;;;12.00;9.75;;;;;22.26;68.93;100840.13;5022885;28;45458;-86
2021/09/14 08:23:24;;;;;;;;;13.75;10.75;;;;;22.32;68.96;100852.41;5021725;28;45394;-85
2021/09/14 08:25:53;;;;;;;;;15.75;11.00;;;;;22.30;69.17;100853.31;5022038;28;45305;-88
2021/09/14 08:28:18;;;;;;;;;12.00;11.50;;;;;22.29;69.18;100843.63;5020653;28;45540;-89
2021/09/14 08:30:44;;;;;;;;;10.75;7.50;;;;;22.30;69.01;100851.53;5020851;28;45268;-89
2021/09/14 08:33:40;;;;;;;;;9.75;8.50;;;;;22.29;69.17;100856.81;5025568;28;46042;-88
2021/09/14 08:36:43;;;;;;;;;13.50;12.00;;;;;22.15;69.10;100847.19;5028584;28;45598;-88
2021/09/14 08:39:12;;;;;;;;;13.00;13.00;;;;;22.18;69.28;100855.09;5038863;28;45552;-88
2021/09/14 08:41:43;;;;;;;;;10.50;9.50;;;;;22.20;69.67;100855.09;5042443;28;45374;-88
2021/09/14 08:44:17;;;;;;;;;11.75;10.00;;;;;22.21;69.75;100856.84;5055161;28;45698;-89
2021/09/14 08:46:43;;;;;;;;;15.25;11.00;;;;;22.25;69.29;100863.84;5041782;28;45454;-87
2021/09/14 08:49:12;;;;;;;;;11.00;9.75;;;;;22.23;69.38;100874.41;5038663;28;45406;-87
2021/09/14 08:51:37;;;;;;;;;13.00;10.75;;;;;22.27;69.29;100877.91;5040536;28;45445;-89
2021/09/14 08:54:03;;;;;;;;;12.00;9.25;;;;;22.31;69.48;100878.78;5039233;28;45417;-89
2021/09/14 08:56:29;;;;;;;;;13.25;11.50;;;;;22.34;69.16;100884.03;5039728;28;45751;-88
2021/09/14 08:58:59;;;;;;;;;13.25;11.75;;;;;22.42;69.16;100872.63;5041952;28;45278;-88
2021/09/14 09:01:25;;;;;;;;;9.75;9.75;;;;;22.46;69.01;100868.22;5063132;28;45450;-86
2021/09/14 09:04:21;;;;;;;;;15.00;11.25;;;;;22.57;68.80;100863.78;5042796;28;45475;-86
2021/09/14 09:06:47;;;;;;;;;11.00;8.50;;;;;22.60;68.74;100862.88;5040440;28;45382;-86
2021/09/14 09:09:15;;;;;;;;;12.25;12.25;;;;;22.67;68.70;100859.34;5055378;28;45486;-90
2021/09/14 09:12:02;;;;;;;;;13.00;10.75;;;;;22.74;68.92;100857.53;5040842;28;45498;-87
2021/09/14 09:14:39;;;;;;;;;16.50;12.75;;;;;22.79;68.62;100863.69;5039543;28;46505;-89
2021/09/14 09:17:08;;;;;;;;;10.00;10.00;;;;;22.81;67.81;100856.63;5043599;28;45810;-94
2021/09/14 09:19:34;;;;;;;;;13.50;10.00;;;;;22.83;68.40;100867.19;5046670;28;45259;-93
2021/09/14 09:22:00;;;;;;;;;15.00;11.50;;;;;22.82;68.56;100870.69;5045396;28;44896;-95
2021/09/14 09:24:45;;;;;;;;;10.00;10.00;;;;;22.79;68.63;100873.34;5047191;28;46169;-95
2021/09/14 09:27:13;;;;;;;;;11.25;11.25;;;;;22.78;68.52;100867.19;5050647;28;45630;-88
2021/09/14 09:29:39;;;;;;;;;12.00;9.75;;;;;22.83;68.19;100861.91;5059577;28;44802;-92
2021/09/14 09:32:05;;;;;;;;;12.25;11.00;;;;;22.87;68.33;100869.78;5051363;28;45496;-91
2021/09/14 09:34:31;;;;;;;;;15.75;13.75;;;;;22.93;68.42;100873.31;5055079;28;47348;-93
2021/09/14 09:37:05;;;;;;;;;9.50;9.50;;;;;22.94;68.24;100880.34;5053636;28;45288;-89
2021/09/14 09:39:47;;;;;;;;;12.00;10.25;;;;;22.93;67.67;100878.59;5040561;28;45383;-88
2021/09/14 09:42:14;;;;;;;;;9.50;9.50;;;;;22.92;67.47;100876.81;5041921;28;45398;-90
2021/09/14 09:44:54;;;;;;;;;12.25;11.50;;;;;22.97;67.60;100861.81;5038145;28;45462;-86
2021/09/14 09:47:20;;;;;;;;;14.25;11.00;;;;;23.06;68.07;100868.81;5038836;28;45237;-84
2021/09/14 09:49:49;;;;;;;;;11.75;9.50;;;;;23.13;67.20;100863.50;5042717;28;45401;-83
2021/09/14 09:52:18;;;;;;;;;10.75;10.75;;;;;23.21;67.63;100860.84;5036743;28;45346;-89
2021/09/14 09:54:45;;;;;;;;;13.50;13.25;;;;;23.22;67.05;100856.41;5040067;28;48005;-86
2021/09/14 09:57:30;;;;;;;;;12.75;10.25;;;;;23.25;66.97;100861.69;5048459;28;45239;-85
2021/09/14 09:59:56;;;;;;;;;13.75;11.75;;;;;23.26;66.70;100859.03;5042836;28;45203;-88
2021/09/14 10:03:52;;;;;;;;;13.25;11.25;;;;;23.28;66.88;100866.94;5043111;28;45559;-89
2021/09/14 10:06:16;;;;;;;;;14.00;10.25;;;;;23.24;66.41;100854.66;4997391;28;46073;-87
2021/09/14 10:08:50;;;;;;;;;11.50;10.75;;;;;23.30;66.48;100858.13;4979003;28;45717;-87
2021/09/14 10:11:27;;;;;;;;;15.00;13.50;;;;;23.34;66.49;100849.28;5006605;28;45213;-87
2021/09/14 10:14:12;;;;;;;;;10.75;10.75;;;;;23.32;65.95;100844.91;5018669;28;45462;-87
2021/09/14 10:16:49;;;;;;;;;10.25;7.25;;;;;23.43;66.38;100855.41;5032537;28;47118;-86
2021/09/14 10:19:25;;;;;;;;;13.25;11.75;;;;;23.52;66.27;100863.25;5017543;28;45840;-87
2021/09/14 10:22:07;;;;;;;;;11.50;9.50;;;;;23.56;66.07;100861.44;5030171;28;44811;-88
2021/09/14 10:24:37;;;;;;;;;15.50;13.00;;;;;23.65;65.94;100858.72;5025454;28;45346;-89
2021/09/14 10:27:13;;;;;;;;;14.50;13.25;;;;;23.69;65.52;100857.81;5024646;28;45265;-88
2021/09/14 10:29:43;;;;;;;;;14.00;12.25;;;;;23.72;65.59;100852.47;5016439;28;45419;-89
2021/09/14 10:32:12;;;;;;;;;11.75;11.00;;;;;23.73;65.32;100848.09;5016913;28;45348;-87
2021/09/14 10:34:51;;;;;;;;;11.50;11.00;;;;;23.77;65.21;100857.72;5020195;28;45517;-87
2021/09/14 10:37:36;;;;;;;;;12.75;11.00;;;;;23.75;64.77;100847.16;5017707;28;47246;-88
2021/09/14 10:40:14;;;;;;;;;14.75;11.50;;;;;23.78;64.86;100849.78;5042737;28;45470;-88
2021/09/14 10:42:43;;;;;;;;;17.75;12.75;;;;;23.76;64.76;100859.50;5031443;28;45450;-87
2021/09/14 10:45:20;;;;;;;;;9.25;8.75;;;;;23.75;65.39;100863.03;5027673;28;45391;-87
2021/09/14 10:47:49;;;;;;;;;10.50;9.75;;;;;23.77;64.94;100858.63;5046409;28;45720;-86
2021/09/14 10:50:35;;;;;;;;;14.50;12.50;;;;;23.81;64.96;100855.03;5049804;28;45477;-89
2021/09/14 10:53:06;;;;;;;;;12.50;10.25;;;;;23.85;65.10;100841.78;5032892;28;45444;-88
2021/09/14 10:55:32;;;;;;;;;15.75;9.25;;;;;23.85;64.44;100845.31;5029357;28;45568;-88
2021/09/14 10:58:02;;;;;;;;;14.50;10.00;;;;;23.90;64.07;100832.06;5008561;28;45381;-88
2021/09/14 11:00:34;;;;;;;;;8.75;8.25;;;;;23.98;64.33;100847.84;5029869;28;45261;-90
2021/09/14 11:03:05;;;;;;;;;11.25;8.75;;;;;23.96;63.59;100842.59;5020694;28;45437;-90
2021/09/14 11:05:33;;;;;;;;;9.75;9.75;;;;;24.03;63.53;100856.63;5020925;28;45261;-89
2021/09/14 11:08:00;;;;;;;;;16.75;11.00;;;;;24.01;63.32;100847.84;5019596;28;45875;-89
2021/09/14 11:10:35;;;;;;;;;16.00;14.50;;;;;24.03;63.58;100844.28;5019068;28;45470;-88
2021/09/14 11:13:04;;;;;;;;;9.50;9.25;;;;;24.08;63.52;100845.13;5041037;28;45431;-89
2021/09/14 11:15:30;;;;;;;;;11.25;8.25;;;;;24.14;63.00;100849.47;5030546;28;44899;-88
2021/09/14 11:17:55;;;;;;;;;11.75;10.00;;;;;24.24;62.27;100852.91;5029539;28;45219;-88
2021/09/14 11:20:26;;;;;;;;;11.00;9.25;;;;;24.37;62.71;100858.91;5032869;28;45353;-87
2021/09/14 11:22:53;;;;;;;;;11.00;10.00;;;;;24.47;61.81;100851.72;5023757;28;45501;-82
2021/09/14 11:25:23;;;;;;;;;10.00;9.25;;;;;24.56;61.36;100847.19;5041450;28;45181;-91
2021/09/14 11:28:07;;;;;;;;;9.50;9.50;;;;;24.68;60.75;100855.88;5042851;28;46644;-92
2021/09/14 11:30:42;;;;;;;;;6.75;6.50;;;;;24.74;60.52;100853.16;5044591;28;45859;-92
2021/09/14 11:33:08;;;;;;;;;8.25;8.25;;;;;24.78;60.83;100854.03;5048869;28;45268;-91
2021/09/14 11:35:36;;;;;;;;;7.00;6.50;;;;;24.78;59.07;100838.13;5048696;28;45715;-92
2021/09/14 11:38:04;;;;;;;;;12.50;9.50;;;;;24.78;59.61;100836.34;5057266;28;45436;-91
2021/09/14 11:40:34;;;;;;;;;8.75;8.00;;;;;24.84;59.78;100843.34;5054432;28;45196;-92
2021/09/14 11:43:04;;;;;;;;;9.00;8.50;;;;;24.85;59.66;100848.59;5041141;28;45428;-92
2021/09/14 11:45:32;;;;;;;;;10.00;7.75;;;;;24.86;59.13;100847.69;5036170;28;44828;-94
2021/09/14 11:47:59;;;;;;;;;8.25;7.50;;;;;24.95;58.96;100843.16;5039627;28;46261;-86
2021/09/14 11:50:26;;;;;;;;;11.25;7.75;;;;;25.08;59.63;100846.53;5029460;28;45732;-82
2021/09/14 11:53:03;;;;;;;;;8.25;7.50;;;;;25.23;59.50;100833.03;5034977;28;45264;-82
2021/09/14 11:55:29;;;;;;;;;9.00;9.00;;;;;25.45;58.71;100838.91;5025742;28;45401;-86
2021/09/14 11:58:00;;;;;;;;;9.50;5.75;;;;;25.64;58.62;100828.88;5021318;28;45212;-82
2021/09/14 12:00:35;;;;;;;;;7.25;7.25;;;;;25.74;57.60;100829.56;5018133;28;45379;-85
2021/09/14 12:03:01;;;;;;;;;8.75;7.25;;;;;25.80;57.70;100825.91;5025454;28;45556;-85
2021/09/14 12:05:27;;;;;;;;;11.50;9.00;;;;;25.87;57.14;100835.50;5025881;28;45375;-83
2021/09/14 12:08:00;;;;;;;;;8.25;5.75;;;;;25.87;56.57;100835.50;5032247;28;45875;-83
2021/09/14 12:10:27;;;;;;;;;6.75;5.00;;;;;25.84;56.60;100832.94;5030792;28;45429;-82
2021/09/14 12:12:56;;;;;;;;;9.75;9.25;;;;;25.81;56.05;100832.97;5021295;28;45277;-82
2021/09/14 12:15:31;;;;;;;;;7.25;7.25;;;;;25.83;56.45;100823.22;5020143;28;45457;-82